Time;durP1;ratioP1;P1;durP2;ratioP2;P2;SDS_P1;SDS_P2;PMS_P1;PMS_P2;Temp;Humidity;BMP_temperature;BMP_pressure;BME280_temperature;BME280_humidity;BME280_pressure;Samples;Min_cycle;Max_cycle;Signal;HPM_P1;HPM_P2
2022/11/18 00:01:20;;;;;;;14.65;5.35;;;15.90;99.90;;;;;;5067962;28;20059;-73
2022/11/18 00:03:49;;;;;;;11.45;6.10;;;15.90;99.90;;;;;;5071015;28;20032;-72
2022/11/18 00:06:19;;;;;;;11.68;5.00;;;15.80;99.90;;;;;;5082352;28;20055;-73
2022/11/18 00:08:47;;;;;;;11.55;6.82;;;15.80;99.90;;;;;;5063579;28;20048;-72
2022/11/18 00:14:19;;;;;;;11.77;7.35;;;15.90;99.90;;;;;;5077028;28;20078;-72
2022/11/18 00:16:48;;;;;;;14.25;6.80;;;15.90;99.90;;;;;;5067391;28;20412;-72
2022/11/18 00:19:16;;;;;;;9.15;5.68;;;16.00;99.90;;;;;;5062352;28;20059;-73
2022/11/18 00:21:44;;;;;;;11.25;6.22;;;16.10;99.90;;;;;;5061734;28;20040;-72
2022/11/18 00:24:12;;;;;;;10.73;6.32;;;16.10;99.90;;;;;;5086759;28;20402;-72
2022/11/18 00:26:40;;;;;;;12.10;6.70;;;16.10;99.90;;;;;;5083251;28;20044;-72
2022/11/18 00:29:09;;;;;;;8.38;5.50;;;16.20;99.90;;;;;;5034963;28;20051;-73
2022/11/18 00:31:37;;;;;;;10.85;4.75;;;16.20;99.90;;;;;;5069462;28;20075;-73
2022/11/18 00:34:05;;;;;;;9.45;4.95;;;16.30;99.90;;;;;;5054146;28;20044;-73
2022/11/18 00:36:33;;;;;;;10.23;5.60;;;16.20;99.90;;;;;;5068947;28;20043;-72
2022/11/18 00:39:00;;;;;;;7.32;4.75;;;16.20;99.90;;;;;;5053731;28;20040;-72
2022/11/18 00:42:50;;;;;;;7.57;5.10;;;16.20;99.90;;;;;;5067695;28;20067;-72
2022/11/18 00:44:16;;;;;;;7.30;5.30;;;16.20;99.90;;;;;;5052983;28;20066;-73
2022/11/18 00:46:44;;;;;;;9.15;5.18;;;16.30;99.90;;;;;;5031275;28;20101;-73
2022/11/18 00:49:11;;;;;;;10.55;5.57;;;16.20;99.90;;;;;;5035006;28;20067;-72
2022/11/18 00:51:39;;;;;;;9.15;4.63;;;16.20;99.90;;;;;;5065174;28;20420;-72
2022/11/18 00:54:07;;;;;;;7.57;4.13;;;16.10;99.90;;;;;;5053332;28;20044;-72
2022/11/18 00:56:34;;;;;;;5.93;3.88;;;16.10;99.90;;;;;;5050969;28;20064;-73
2022/11/18 00:59:02;;;;;;;9.80;5.38;;;16.00;99.90;;;;;;5053338;28;20146;-72
2022/11/18 01:01:30;;;;;;;7.88;5.15;;;15.90;99.90;;;;;;5051053;28;20041;-72
2022/11/18 01:03:58;;;;;;;8.63;6.70;;;15.90;99.90;;;;;;5053650;28;20055;-73
2022/11/18 01:06:25;;;;;;;9.00;5.90;;;15.80;99.90;;;;;;5045726;28;20039;-73
2022/11/18 01:08:53;;;;;;;12.68;8.60;;;15.90;99.90;;;;;;5037210;28;20125;-73
2022/11/18 01:14:07;;;;;;;12.40;7.05;;;15.90;99.90;;;;;;5052292;28;20141;-72
2022/11/18 01:16:34;;;;;;;11.95;7.40;;;15.90;99.90;;;;;;5067494;28;20079;-72
2022/11/18 01:19:02;;;;;;;10.35;5.80;;;15.80;99.90;;;;;;5069488;28;20134;-72
2022/11/18 01:21:30;;;;;;;10.63;6.80;;;15.80;99.90;;;;;;5026771;28;20121;-73
2022/11/18 01:23:57;;;;;;;10.63;6.93;;;15.70;99.90;;;;;;5058338;28;20040;-73
2022/11/18 01:26:25;;;;;;;11.48;5.63;;;15.60;99.90;;;;;;5068461;28;20056;-73
2022/11/18 01:28:56;;;;;;;8.77;6.05;;;15.50;99.90;;;;;;5052519;28;20044;-72
2022/11/18 01:31:24;;;;;;;9.88;5.35;;;15.50;99.90;;;;;;5057828;28;20471;-73
2022/11/18 01:33:51;;;;;;;9.73;5.13;;;15.50;99.90;;;;;;5051328;28;20062;-73
2022/11/18 01:36:23;;;;;;;9.43;4.88;;;15.50;99.90;;;;;;5045103;28;20044;-73
2022/11/18 01:38:51;;;;;;;9.75;5.72;;;15.30;99.90;;;;;;5069176;28;20146;-73
2022/11/18 01:41:21;;;;;;;12.52;5.65;;;15.30;99.90;;;;;;5048793;28;20080;-72
2022/11/18 01:44:00;;;;;;;8.00;4.28;;;15.30;99.90;;;;;;5068396;28;20052;-72
2022/11/18 01:46:31;;;;;;;7.47;3.47;;;15.20;99.90;;;;;;5066596;28;20063;-72
2022/11/18 01:49:13;;;;;;;6.07;3.70;;;15.20;99.90;;;;;;5069345;28;20044;-72
2022/11/18 01:51:46;;;;;;;11.57;4.97;;;15.20;99.90;;;;;;5047360;28;20047;-71
2022/11/18 01:54:24;;;;;;;9.23;4.97;;;15.20;99.90;;;;;;5053167;28;20127;-72
2022/11/18 01:56:59;;;;;;;7.88;4.82;;;15.20;99.90;;;;;;5052097;28;20486;-71
2022/11/18 01:59:34;;;;;;;7.95;4.35;;;15.10;99.90;;;;;;5032330;28;20140;-72
2022/11/18 02:02:07;;;;;;;5.88;4.55;;;15.10;99.90;;;;;;5068690;28;20131;-72
2022/11/18 02:04:36;;;;;;;6.15;4.20;;;15.10;99.90;;;;;;5035395;28;20704;-72
2022/11/18 02:07:04;;;;;;;7.50;4.45;;;15.10;99.90;;;;;;5047994;28;20055;-72
2022/11/18 02:09:31;;;;;;;7.53;4.43;;;15.10;99.90;;;;;;5067553;28;20067;-71
2022/11/18 02:11:59;;;;;;;6.07;3.88;;;15.10;99.90;;;;;;5034933;28;20117;-72
2022/11/18 02:14:33;;;;;;;8.77;4.10;;;15.10;99.90;;;;;;5066624;28;20700;-72
2022/11/18 02:17:35;;;;;;;8.13;4.18;;;15.20;99.90;;;;;;5063920;28;20044;-72
2022/11/18 02:20:12;;;;;;;6.30;3.72;;;15.20;99.90;;;;;;5030003;28;20127;-72
2022/11/18 02:22:58;;;;;;;8.40;3.50;;;15.20;99.90;;;;;;5047090;28;20048;-72
2022/11/18 02:25:56;;;;;;;6.15;2.55;;;15.20;99.90;;;;;;5064794;28;20044;-72
2022/11/18 02:28:42;;;;;;;5.57;3.70;;;15.20;99.90;;;;;;5059135;28;20147;-72
2022/11/18 02:31:10;;;;;;;6.55;3.10;;;15.20;99.90;;;;;;5051869;28;20039;-72
2022/11/18 02:33:42;;;;;;;7.38;4.10;;;15.10;99.90;;;;;;5087050;28;20147;-72
2022/11/18 02:36:16;;;;;;;6.20;3.55;;;15.10;99.90;;;;;;5065073;28;20054;-72
2022/11/18 02:38:49;;;;;;;9.13;4.47;;;15.10;99.90;;;;;;5064045;28;20048;-72
2022/11/18 02:41:25;;;;;;;4.25;2.95;;;15.10;99.90;;;;;;5057991;28;20067;-73
2022/11/18 02:43:58;;;;;;;8.93;4.63;;;15.00;99.90;;;;;;5086028;28;20470;-72
2022/11/18 02:46:34;;;;;;;8.68;3.80;;;15.00;99.90;;;;;;5067895;28;20043;-74
2022/11/18 02:49:06;;;;;;;8.23;3.55;;;15.00;99.90;;;;;;5051584;28;20045;-74
2022/11/18 02:51:35;;;;;;;6.80;3.88;;;15.00;99.90;;;;;;5046783;28;20044;-74
2022/11/18 02:54:07;;;;;;;7.85;4.43;;;14.90;99.90;;;;;;5090599;28;20112;-73
2022/11/18 02:56:35;;;;;;;8.05;4.47;;;14.80;99.90;;;;;;5059637;28;20478;-73
2022/11/18 02:59:04;;;;;;;5.43;3.35;;;14.80;99.90;;;;;;5072024;28;20451;-73
2022/11/18 03:01:34;;;;;;;7.82;3.83;;;14.80;99.90;;;;;;5071674;28;20541;-73
2022/11/18 03:04:02;;;;;;;7.25;3.92;;;14.80;99.90;;;;;;5090943;28;20067;-73
2022/11/18 03:06:36;;;;;;;4.50;2.88;;;14.80;99.90;;;;;;5067878;28;20635;-73
2022/11/18 03:09:20;;;;;;;7.25;3.13;;;14.80;99.90;;;;;;5070052;28;20044;-73
2022/11/18 03:12:05;;;;;;;6.72;2.63;;;14.70;99.90;;;;;;5037151;28;20047;-73
2022/11/18 03:14:52;;;;;;;8.13;3.75;;;14.70;99.90;;;;;;5060742;28;20044;-73
2022/11/18 03:17:54;;;;;;;8.18;3.22;;;14.70;99.90;;;;;;5056592;28;20448;-73
2022/11/18 03:20:50;;;;;;;5.28;2.80;;;14.70;99.90;;;;;;5073199;28;20071;-73
2022/11/18 03:23:35;;;;;;;6.72;3.28;;;14.60;99.90;;;;;;5044253;28;20056;-73
2022/11/18 03:26:19;;;;;;;5.15;2.65;;;14.60;99.90;;;;;;5073397;28;20048;-73
2022/11/18 03:29:06;;;;;;;5.07;2.47;;;14.60;99.90;;;;;;5091842;28;20036;-73
2022/11/18 03:31:48;;;;;;;6.40;3.85;;;14.70;99.90;;;;;;5072880;28;20121;-73
2022/11/18 03:34:31;;;;;;;4.78;2.30;;;14.70;99.90;;;;;;5056601;28;20679;-73
2022/11/18 03:37:02;;;;;;;4.95;2.70;;;14.70;99.90;;;;;;5056767;28;20354;-73
2022/11/18 03:39:37;;;;;;;4.13;1.80;;;14.70;99.90;;;;;;5056885;28;20055;-73
2022/11/18 03:42:10;;;;;;;4.63;2.60;;;14.70;99.90;;;;;;5040334;28;20389;-73
2022/11/18 03:44:42;;;;;;;4.22;2.45;;;14.70;99.90;;;;;;5056319;28;20356;-73
2022/11/18 03:47:24;;;;;;;6.97;2.85;;;14.70;99.90;;;;;;5056885;28;20051;-73
2022/11/18 03:50:06;;;;;;;4.38;2.63;;;14.70;99.90;;;;;;5056995;28;20497;-73
2022/11/18 03:52:36;;;;;;;6.88;3.40;;;14.70;99.90;;;;;;5073194;28;20040;-73
2022/11/18 03:55:13;;;;;;;4.38;2.63;;;14.60;99.90;;;;;;5052235;28;20052;-73
2022/11/18 03:57:46;;;;;;;3.75;2.50;;;14.70;99.90;;;;;;5036586;28;20072;-73
2022/11/18 04:00:16;;;;;;;6.13;2.78;;;14.60;99.90;;;;;;5079441;28;20055;-73
2022/11/18 04:02:45;;;;;;;6.22;3.65;;;14.60;99.90;;;;;;5065602;28;20769;-73
2022/11/18 04:05:14;;;;;;;4.70;2.88;;;14.60;99.90;;;;;;5052375;28;20044;-73
2022/11/18 04:08:03;;;;;;;10.05;6.72;;;14.60;99.90;;;;;;5052776;28;20055;-74
2022/11/18 04:10:38;;;;;;;16.05;10.45;;;14.60;99.90;;;;;;5036217;28;20143;-73
2022/11/18 04:13:18;;;;;;;18.05;13.13;;;14.60;99.90;;;;;;5052439;28;20561;-73
2022/11/18 04:15:46;;;;;;;16.88;10.52;;;14.60;99.90;;;;;;5035844;28;20109;-74
2022/11/18 04:18:14;;;;;;;14.25;8.73;;;14.60;99.90;;;;;;5070475;28;20044;-73
2022/11/18 04:20:41;;;;;;;10.38;6.22;;;14.60;99.90;;;;;;5051541;28;20437;-73
2022/11/18 04:23:09;;;;;;;6.68;4.65;;;14.70;99.90;;;;;;5070196;28;20778;-73
2022/11/18 04:25:36;;;;;;;4.57;3.05;;;14.70;99.90;;;;;;5035708;28;20048;-74
2022/11/18 04:28:05;;;;;;;9.02;3.28;;;14.70;99.90;;;;;;5052378;28;20051;-73
2022/11/18 04:30:32;;;;;;;7.38;2.92;;;14.70;99.90;;;;;;5069598;28;20048;-73
2022/11/18 04:33:01;;;;;;;5.85;2.63;;;14.70;99.90;;;;;;5069132;28;20040;-73
2022/11/18 04:35:29;;;;;;;4.93;2.53;;;14.80;99.90;;;;;;5051146;28;20041;-73
2022/11/18 04:37:57;;;;;;;4.55;2.88;;;14.80;99.90;;;;;;5069172;28;20127;-73
2022/11/18 04:40:24;;;;;;;4.05;2.53;;;14.80;99.90;;;;;;5034783;28;20072;-73
2022/11/18 04:42:52;;;;;;;2.67;1.90;;;14.80;99.90;;;;;;5052908;28;20048;-73
2022/11/18 04:45:19;;;;;;;3.47;2.05;;;14.80;99.90;;;;;;5034980;28;20136;-73
2022/11/18 04:47:47;;;;;;;5.35;2.45;;;14.80;99.90;;;;;;5051275;28;20186;-73
2022/11/18 04:50:14;;;;;;;3.50;2.13;;;14.80;99.90;;;;;;5051385;28;20147;-73
2022/11/18 04:52:42;;;;;;;4.10;2.17;;;14.80;99.90;;;;;;5034328;28;20063;-73
2022/11/18 04:55:09;;;;;;;6.97;2.90;;;14.80;99.90;;;;;;5068793;28;20052;-73
2022/11/18 04:57:37;;;;;;;3.15;2.10;;;14.80;99.90;;;;;;5051837;28;20135;-73
2022/11/18 05:00:05;;;;;;;3.67;2.33;;;14.70;99.90;;;;;;5051179;28;20044;-73
2022/11/18 05:02:33;;;;;;;7.13;2.95;;;14.70;99.90;;;;;;5050872;28;20501;-73
2022/11/18 05:05:01;;;;;;;4.78;2.97;;;14.60;99.90;;;;;;5034780;28;20112;-73
2022/11/18 05:07:28;;;;;;;4.05;2.17;;;14.60;99.90;;;;;;5051356;28;20048;-73
2022/11/18 05:09:56;;;;;;;4.93;2.42;;;14.60;99.90;;;;;;5051301;28;20474;-73
2022/11/18 05:15:09;;;;;;;3.80;2.50;;;14.60;99.90;;;;;;5051157;28;20056;-73
2022/11/18 05:17:37;;;;;;;4.35;2.30;;;14.60;99.90;;;;;;5068712;28;20047;-73
2022/11/18 05:20:05;;;;;;;5.60;3.00;;;14.60;99.90;;;;;;5051167;28;20048;-72
2022/11/18 05:22:33;;;;;;;5.22;2.88;;;14.60;99.90;;;;;;5050852;28;20116;-72
2022/11/18 05:25:00;;;;;;;6.88;3.47;;;14.50;99.90;;;;;;5050286;28;20106;-72
2022/11/18 05:27:28;;;;;;;6.45;2.80;;;14.50;99.90;;;;;;5033821;28;20256;-72
2022/11/18 05:29:55;;;;;;;7.68;2.70;;;14.50;99.90;;;;;;5033854;28;20470;-72
2022/11/18 05:32:23;;;;;;;3.85;2.25;;;14.50;99.90;;;;;;5033526;28;20117;-72
2022/11/18 05:34:51;;;;;;;3.80;2.50;;;14.60;99.90;;;;;;5068653;28;20043;-72
2022/11/18 05:37:19;;;;;;;3.47;2.15;;;14.50;99.90;;;;;;5050500;28;20514;-72
2022/11/18 05:39:46;;;;;;;7.20;3.50;;;14.50;99.90;;;;;;5077115;28;20126;-72
2022/11/18 05:45:00;;;;;;;5.50;2.92;;;14.60;99.90;;;;;;5070706;28;20083;-72
2022/11/18 05:47:58;;;;;;;4.70;2.45;;;14.60;99.90;;;;;;5088193;28;20097;-72
2022/11/18 05:50:15;;;;;;;5.75;2.53;;;14.50;99.90;;;;;;5070595;28;20145;-72
2022/11/18 05:52:46;;;;;;;8.13;3.63;;;14.50;99.90;;;;;;5053773;28;20064;-72
2022/11/18 05:55:15;;;;;;;5.60;2.83;;;14.50;99.90;;;;;;5035565;28;20139;-72
2022/11/18 05:57:43;;;;;;;7.13;3.83;;;14.60;99.90;;;;;;5051266;28;20036;-71
2022/11/18 06:00:11;;;;;;;4.07;2.53;;;14.70;99.90;;;;;;5068024;28;20055;-71
2022/11/18 06:02:42;;;;;;;5.72;2.90;;;14.80;99.90;;;;;;5031413;28;20139;-72
2022/11/18 06:05:11;;;;;;;4.68;3.25;;;15.00;99.90;;;;;;5065762;28;20573;-72
2022/11/18 06:07:43;;;;;;;7.50;3.03;;;15.10;99.90;;;;;;5061110;28;20044;-72
2022/11/18 06:10:33;;;;;;;3.83;2.35;;;15.30;99.90;;;;;;5034298;28;20041;-71
2022/11/18 06:13:05;;;;;;;5.70;2.65;;;15.40;99.90;;;;;;5062537;28;20051;-72
2022/11/18 06:15:39;;;;;;;5.57;2.78;;;15.50;99.90;;;;;;5051787;28;20055;-72
2022/11/18 06:18:18;;;;;;;4.28;2.42;;;15.70;99.90;;;;;;5075841;28;20130;-72
2022/11/18 06:20:46;;;;;;;7.28;3.20;;;15.90;99.90;;;;;;5041784;28;20064;-73
2022/11/18 06:23:14;;;;;;;4.85;3.03;;;16.20;99.90;;;;;;5079414;28;20048;-72
2022/11/18 06:25:42;;;;;;;5.60;2.17;;;16.40;99.90;;;;;;5079244;28;20043;-73
2022/11/18 06:28:12;;;;;;;3.83;2.25;;;16.60;99.90;;;;;;5067408;28;20117;-72
2022/11/18 06:30:40;;;;;;;6.10;2.38;;;16.70;99.90;;;;;;5054770;28;20040;-72
2022/11/18 06:33:08;;;;;;;5.53;2.30;;;16.90;99.90;;;;;;5052540;28;20052;-72
2022/11/18 06:35:35;;;;;;;4.00;2.05;;;17.30;99.90;;;;;;5051099;28;20056;-73
2022/11/18 06:38:03;;;;;;;3.58;2.38;;;17.60;99.90;;;;;;5066068;28;20041;-73
2022/11/18 06:40:30;;;;;;;3.60;2.20;;;17.90;99.90;;;;;;5045566;28;20040;-72
2022/11/18 06:48:48;;;;;;;4.43;2.28;;;17.30;99.90;;;;;;5071209;28;20044;-72
2022/11/18 06:51:16;;;;;;;6.28;2.30;;;16.70;99.90;;;;;;5066282;28;20084;-73
2022/11/18 06:53:44;;;;;;;5.28;2.30;;;16.50;99.90;;;;;;5071081;28;20375;-72
2022/11/18 06:56:14;;;;;;;5.50;2.95;;;16.30;99.90;;;;;;5051531;28;20533;-72
2022/11/18 06:58:42;;;;;;;6.57;2.20;;;16.20;99.90;;;;;;5057998;28;20044;-73
2022/11/18 07:01:23;;;;;;;8.30;3.60;;;16.70;99.90;;;;;;5073740;28;20075;-72
2022/11/18 07:03:51;;;;;;;4.43;2.35;;;17.40;99.90;;;;;;5063353;28;20153;-72
2022/11/18 07:06:22;;;;;;;9.25;2.78;;;18.20;99.90;;;;;;5045856;28;20382;-72
2022/11/18 07:08:51;;;;;;;5.63;2.20;;;18.60;99.90;;;;;;5069197;28;20060;-72
2022/11/18 07:11:21;;;;;;;8.38;2.35;;;18.80;99.90;;;;;;5067235;28;20117;-72
2022/11/18 07:13:49;;;;;;;4.25;1.75;;;18.80;99.90;;;;;;5081603;28;20075;-73
2022/11/18 07:16:22;;;;;;;3.08;2.05;;;18.80;99.90;;;;;;5060200;28;20086;-72
2022/11/18 07:18:51;;;;;;;5.63;2.42;;;19.10;99.90;;;;;;5070315;28;20103;-72
2022/11/18 07:21:22;;;;;;;5.35;2.53;;;18.80;99.90;;;;;;5051531;28;20127;-71
2022/11/18 07:23:49;;;;;;;3.95;2.97;;;18.60;99.90;;;;;;5072688;28;20047;-70
2022/11/18 07:26:18;;;;;;;6.07;3.03;;;18.30;99.90;;;;;;5072316;28;20044;-70
2022/11/18 07:28:45;;;;;;;5.40;3.03;;;17.90;99.90;;;;;;5056518;28;20047;-70
2022/11/18 07:31:17;;;;;;;5.35;3.13;;;17.70;99.90;;;;;;5072755;28;20051;-70
2022/11/18 07:33:46;;;;;;;6.25;3.33;;;17.60;99.90;;;;;;5055231;28;20467;-70
2022/11/18 07:36:16;;;;;;;10.93;3.47;;;17.80;99.90;;;;;;5090690;28;20056;-71
2022/11/18 07:38:44;;;;;;;9.13;3.30;;;18.10;99.90;;;;;;5038421;28;20055;-70
2022/11/18 07:41:13;;;;;;;6.93;3.22;;;18.40;99.90;;;;;;5056128;28;20059;-70
2022/11/18 07:43:41;;;;;;;6.20;2.75;;;18.50;99.90;;;;;;5038593;28;20064;-72
2022/11/18 07:46:19;;;;;;;4.95;2.33;;;18.30;99.90;;;;;;5039147;28;20078;-70
2022/11/18 07:48:49;;;;;;;10.15;3.40;;;18.10;99.90;;;;;;5090923;28;20126;-71
2022/11/18 07:51:20;;;;;;;4.97;2.92;;;17.90;99.90;;;;;;5055934;28;20175;-70
2022/11/18 07:53:47;;;;;;;6.05;2.90;;;17.90;99.90;;;;;;5056062;28;20509;-70
2022/11/18 07:56:16;;;;;;;3.97;2.38;;;17.80;99.90;;;;;;5072168;28;20067;-70
2022/11/18 07:58:44;;;;;;;4.10;2.58;;;17.80;99.90;;;;;;5072224;28;20048;-70
2022/11/18 08:01:17;;;;;;;5.10;2.33;;;18.00;99.90;;;;;;5072309;28;20347;-70
2022/11/18 08:03:45;;;;;;;3.65;1.90;;;18.30;99.90;;;;;;5055688;28;20804;-70
2022/11/18 08:06:15;;;;;;;4.28;2.78;;;18.60;99.90;;;;;;5090199;28;20509;-70
2022/11/18 08:08:44;;;;;;;4.60;2.00;;;18.90;99.90;;;;;;5071680;28;20047;-71
2022/11/18 08:11:14;;;;;;;12.10;2.58;;;19.10;99.90;;;;;;5055568;28;20126;-71
2022/11/18 08:13:45;;;;;;;4.20;2.95;;;19.10;99.90;;;;;;5051179;28;20048;-70
2022/11/18 08:16:18;;;;;;;3.42;1.98;;;19.20;99.90;;;;;;5051575;28;20040;-71
2022/11/18 08:18:46;;;;;;;5.57;2.05;;;19.20;99.90;;;;;;5035071;28;20111;-70
2022/11/18 08:21:15;;;;;;;4.32;2.05;;;19.40;99.90;;;;;;5052038;28;20408;-70
2022/11/18 08:23:47;;;;;;;3.53;2.05;;;19.50;99.90;;;;;;5035293;28;20044;-72
2022/11/18 08:26:15;;;;;;;4.60;1.85;;;19.50;99.90;;;;;;5051531;28;20499;-70
2022/11/18 08:28:43;;;;;;;6.18;2.30;;;19.70;99.90;;;;;;5051569;28;20124;-70
2022/11/18 08:31:14;;;;;;;3.03;1.80;;;19.80;99.90;;;;;;5050997;28;20103;-70
2022/11/18 08:33:42;;;;;;;6.22;2.90;;;19.90;99.90;;;;;;5069277;28;20041;-71
2022/11/18 08:36:14;;;;;;;5.20;2.40;;;19.90;99.90;;;;;;5051626;28;20166;-70
2022/11/18 08:38:42;;;;;;;5.53;3.22;;;19.90;99.90;;;;;;5018358;28;20106;-70
2022/11/18 08:41:33;;;;;;;9.80;3.85;;;20.10;99.90;;;;;;5069393;28;20395;-70
2022/11/18 08:44:01;;;;;;;12.10;4.00;;;20.00;99.90;;;;;;5018386;28;20048;-71
2022/11/18 08:46:29;;;;;;;7.40;3.25;;;19.70;99.90;;;;;;5050997;28;20052;-70
2022/11/18 08:48:58;;;;;;;9.18;3.88;;;19.50;99.90;;;;;;5051304;28;20044;-70
2022/11/18 08:51:25;;;;;;;10.00;3.83;;;19.40;99.90;;;;;;5034061;28;20052;-70
2022/11/18 08:53:53;;;;;;;5.80;3.25;;;19.30;99.90;;;;;;5051453;28;20101;-70
2022/11/18 08:56:22;;;;;;;7.45;3.25;;;19.30;99.90;;;;;;5034722;28;20048;-70
2022/11/18 08:58:51;;;;;;;6.93;3.33;;;19.20;99.90;;;;;;5034813;28;20060;-70
2022/11/18 09:01:18;;;;;;;5.97;2.80;;;19.20;99.90;;;;;;5034587;28;20056;-70
2022/11/18 09:03:46;;;;;;;6.45;2.95;;;19.20;99.90;;;;;;5033818;28;20075;-70
2022/11/18 09:06:20;;;;;;;8.52;4.10;;;19.30;99.90;;;;;;5034154;28;20048;-70
2022/11/18 09:08:47;;;;;;;7.13;3.22;;;19.50;99.90;;;;;;5068869;28;20463;-70
2022/11/18 09:11:23;;;;;;;5.03;2.58;;;19.90;99.90;;;;;;5067371;28;20074;-70
2022/11/18 09:13:54;;;;;;;4.78;2.42;;;20.20;99.90;;;;;;5036530;28;20044;-70
2022/11/18 09:16:42;;;;;;;10.07;3.25;;;20.40;99.90;;;;;;5038889;28;20470;-70
2022/11/18 09:19:10;;;;;;;6.45;2.55;;;20.40;99.90;;;;;;5089286;28;20037;-70
2022/11/18 09:21:57;;;;;;;6.38;2.90;;;20.50;99.90;;;;;;5057135;28;20048;-71
2022/11/18 09:24:25;;;;;;;5.75;2.70;;;20.60;99.90;;;;;;5088968;28;20462;-71
2022/11/18 09:26:52;;;;;;;6.60;3.70;;;20.80;99.90;;;;;;5088689;28;20055;-71
2022/11/18 09:29:24;;;;;;;6.97;3.13;;;21.10;99.90;;;;;;5087728;28;20048;-70
2022/11/18 09:31:53;;;;;;;5.43;3.00;;;21.10;99.90;;;;;;5088939;28;20123;-70
2022/11/18 09:34:21;;;;;;;5.10;2.78;;;21.10;99.90;;;;;;5087927;28;20051;-70
2022/11/18 09:36:49;;;;;;;4.80;2.80;;;21.10;99.90;;;;;;5088286;28;20046;-70
2022/11/18 09:39:16;;;;;;;6.20;2.90;;;21.00;99.90;;;;;;5087960;28;20040;-70
2022/11/18 09:41:51;;;;;;;5.55;2.67;;;21.00;99.90;;;;;;5037260;28;20048;-71
2022/11/18 09:44:36;;;;;;;8.45;3.05;;;21.10;99.90;;;;;;5088523;28;20044;-71
2022/11/18 09:47:23;;;;;;;5.93;3.05;;;20.90;99.90;;;;;;5070284;28;20470;-69
2022/11/18 09:49:53;;;;;;;6.97;2.70;;;21.00;99.90;;;;;;5070200;28;20506;-69
2022/11/18 09:52:35;;;;;;;4.88;2.78;;;20.90;99.90;;;;;;5053656;28;20159;-69
2022/11/18 09:55:14;;;;;;;8.45;2.80;;;21.10;99.90;;;;;;5070691;28;20135;-70
2022/11/18 09:57:48;;;;;;;6.22;3.33;;;21.10;99.90;;;;;;5054070;28;20059;-69
2022/11/18 10:00:24;;;;;;;5.80;2.97;;;20.90;99.90;;;;;;5070569;28;20486;-69
2022/11/18 10:03:11;;;;;;;5.57;3.15;;;20.80;99.90;;;;;;5085425;28;20044;-71
2022/11/18 10:05:41;;;;;;;6.65;2.97;;;20.90;99.90;;;;;;5070192;28;20634;-70
2022/11/18 10:08:15;;;;;;;4.40;2.05;;;21.00;99.90;;;;;;5053720;28;20101;-69
2022/11/18 10:10:55;;;;;;;12.23;2.53;;;21.00;99.90;;;;;;5053167;28;20563;-70
2022/11/18 10:13:47;;;;;;;6.43;2.85;;;21.20;99.90;;;;;;5069149;28;20051;-71
2022/11/18 10:16:41;;;;;;;7.85;3.03;;;21.20;99.90;;;;;;5052995;28;20071;-71
2022/11/18 10:19:26;;;;;;;4.10;2.35;;;21.00;99.90;;;;;;5069834;28;20060;-71
2022/11/18 10:22:35;;;;;;;3.47;2.30;;;21.10;99.90;;;;;;5036838;28;20062;-72
2022/11/18 10:25:10;;;;;;;3.30;2.00;;;21.20;99.90;;;;;;5024877;28;20050;-72
2022/11/18 10:27:40;;;;;;;6.90;3.80;;;21.40;99.90;;;;;;5044085;28;20056;-72
2022/11/18 10:30:20;;;;;;;10.57;3.33;;;21.40;99.90;;;;;;5035701;28;20052;-71
2022/11/18 10:33:21;;;;;;;4.05;2.10;;;21.40;99.90;;;;;;5056602;28;20085;-71
2022/11/18 10:35:50;;;;;;;6.18;3.15;;;21.20;99.90;;;;;;5054731;28;20044;-71
2022/11/18 10:38:19;;;;;;;5.30;2.35;;;21.20;99.90;;;;;;5079002;28;20045;-72
2022/11/18 10:40:52;;;;;;;5.00;1.83;;;21.30;99.90;;;;;;5055225;28;20356;-71
2022/11/18 10:43:45;;;;;;;4.72;1.98;;;21.20;99.90;;;;;;5041816;28;20056;-72
2022/11/18 10:46:26;;;;;;;6.15;2.58;;;21.00;99.90;;;;;;5054689;28;20101;-72
2022/11/18 10:49:09;;;;;;;3.88;2.10;;;20.80;99.90;;;;;;5050495;28;20052;-72
2022/11/18 10:51:45;;;;;;;5.32;1.80;;;21.00;99.90;;;;;;5071619;28;20036;-72
2022/11/18 10:54:22;;;;;;;7.18;2.22;;;21.20;99.90;;;;;;5052352;28;20068;-73
2022/11/18 10:57:17;;;;;;;4.85;1.70;;;21.40;99.90;;;;;;5031075;28;20056;-72
2022/11/18 10:59:51;;;;;;;3.03;1.95;;;21.30;99.90;;;;;;5029671;28;20780;-72
2022/11/18 11:02:30;;;;;;;3.67;1.67;;;21.10;99.90;;;;;;5073362;28;20138;-72
2022/11/18 11:05:15;;;;;;;4.20;1.83;;;21.00;99.90;;;;;;5051415;28;20063;-71
2022/11/18 11:07:43;;;;;;;2.70;1.90;;;20.90;99.90;;;;;;5067613;28;20058;-70
2022/11/18 11:10:11;;;;;;;6.80;2.00;;;20.90;99.90;;;;;;5087033;28;20055;-70
2022/11/18 11:12:50;;;;;;;3.92;1.73;;;21.00;99.90;;;;;;5051847;28;20524;-72
2022/11/18 11:15:39;;;;;;;6.00;2.70;;;21.20;99.90;;;;;;5055865;28;20489;-71
2022/11/18 11:21:14;;;;;;;5.97;1.60;;;21.10;99.90;;;;;;5089272;28;20148;-71
2022/11/18 11:23:43;;;;;;;2.70;1.73;;;21.10;99.90;;;;;;5055517;28;20055;-71
2022/11/18 11:26:24;;;;;;;3.05;1.58;;;21.30;99.90;;;;;;5088743;28;20048;-71
2022/11/18 11:29:39;;;;;;;5.28;2.20;;;21.50;99.90;;;;;;5074924;28;20044;-71
2022/11/18 11:32:16;;;;;;;8.02;2.17;;;21.40;99.90;;;;;;5089974;28;20072;-72
2022/11/18 11:34:56;;;;;;;4.90;2.40;;;21.30;99.90;;;;;;5038471;28;20379;-71
2022/11/18 11:37:40;;;;;;;7.60;2.50;;;21.40;99.90;;;;;;5072046;28;20040;-70
2022/11/18 11:40:28;;;;;;;8.65;7.10;;;21.50;99.90;;;;;;5055558;28;20059;-71
2022/11/18 11:43:16;;;;;;;13.40;8.75;;;21.60;99.90;;;;;;5072011;28;20045;-72
2022/11/18 11:46:10;;;;;;;31.70;25.05;;;21.80;99.90;;;;;;5071671;28;20129;-72
2022/11/18 11:49:07;;;;;;;5.57;3.92;;;21.90;99.90;;;;;;5072103;28;20452;-72
2022/11/18 11:51:46;;;;;;;5.80;3.00;;;22.40;99.90;;;;;;5048972;28;20053;-72
2022/11/18 11:54:20;;;;;;;4.38;2.58;;;22.00;99.90;;;;;;5051945;28;20079;-72
2022/11/18 11:57:29;;;;;;;40.67;23.48;;;21.90;99.90;;;;;;5051176;28;20040;-70
2022/11/18 12:00:23;;;;;;;4.80;1.80;;;21.70;99.90;;;;;;5071622;28;20040;-71
2022/11/18 12:03:13;;;;;;;13.73;6.63;;;21.50;99.90;;;;;;5068543;28;20130;-70
2022/11/18 12:05:41;;;;;;;8.43;4.45;;;21.30;99.90;;;;;;5084358;28;20127;-70
2022/11/18 12:08:15;;;;;;;7.90;4.78;;;21.20;99.90;;;;;;5069342;28;20549;-70
2022/11/18 12:11:06;;;;;;;8.00;3.10;;;21.20;99.90;;;;;;5083474;28;20157;-71
2022/11/18 12:13:55;;;;;;;6.18;3.63;;;21.30;99.90;;;;;;5048669;28;20494;-70
2022/11/18 12:16:41;;;;;;;134.10;84.82;;;21.40;99.90;;;;;;5067959;28;20119;-70
2022/11/18 12:19:15;;;;;;;827.60;580.03;;;21.60;99.90;;;;;;5030608;28;20083;-72
2022/11/18 12:21:46;;;;;;;331.98;195.40;;;21.70;99.90;;;;;;5052229;28;20127;-71
2022/11/18 12:24:19;;;;;;;124.60;81.75;;;21.80;99.90;;;;;;5036506;28;20461;-70
2022/11/18 12:26:48;;;;;;;89.63;48.83;;;21.70;99.90;;;;;;5057786;28;20048;-71
2022/11/18 12:29:19;;;;;;;15.15;7.18;;;21.60;99.90;;;;;;5069210;28;20043;-71
2022/11/18 12:32:03;;;;;;;9.70;4.10;;;21.50;99.90;;;;;;5038146;28;20040;-70
2022/11/18 12:34:40;;;;;;;4.05;2.63;;;21.60;99.90;;;;;;5052241;28;20183;-70
2022/11/18 12:37:23;;;;;;;8.40;2.90;;;21.40;99.90;;;;;;5054346;28;20543;-70
2022/11/18 12:39:54;;;;;;;5.10;3.60;;;21.30;99.90;;;;;;5086417;28;20032;-70
2022/11/18 12:45:44;;;;;;;10.70;3.10;;;21.30;99.90;;;;;;5066561;28;20103;-70
2022/11/18 12:48:47;;;;;;;4.70;2.90;;;21.20;99.90;;;;;;5067605;28;20060;-70
2022/11/18 12:51:15;;;;;;;11.18;5.20;;;21.20;99.90;;;;;;5020055;28;20141;-70
2022/11/18 12:53:45;;;;;;;10.27;3.92;;;21.20;99.90;;;;;;5039072;28;20125;-70
2022/11/18 12:56:35;;;;;;;4.07;2.80;;;21.20;99.90;;;;;;5053460;28;20140;-71
2022/11/18 12:59:03;;;;;;;6.43;2.40;;;21.20;99.90;;;;;;5072147;28;20441;-70
2022/11/18 13:01:35;;;;;;;6.10;2.30;;;21.10;99.90;;;;;;5048542;28;20078;-71
2022/11/18 13:04:08;;;;;;;9.13;2.85;;;21.00;99.90;;;;;;5068068;28;20154;-70
2022/11/18 13:06:37;;;;;;;11.80;3.25;;;20.80;99.90;;;;;;5048494;28;20040;-71
2022/11/18 13:09:26;;;;;;;12.55;2.85;;;20.70;99.90;;;;;;5067623;28;20052;-72
2022/11/18 13:12:07;;;;;;;6.53;3.13;;;20.80;99.90;;;;;;5030201;28;20222;-70
2022/11/18 13:17:57;;;;;;;7.60;3.10;;;21.00;99.90;;;;;;5051195;28;20098;-71
2022/11/18 13:20:26;;;;;;;5.72;2.33;;;21.00;99.90;;;;;;5082192;28;20047;-70
2022/11/18 13:25:45;;;;;;;6.43;2.58;;;21.10;99.90;;;;;;5059437;28;20072;-70
2022/11/18 13:28:41;;;;;;;7.78;2.88;;;21.20;99.90;;;;;;5037061;28;20449;-70
2022/11/18 13:31:15;;;;;;;9.68;3.67;;;21.20;99.90;;;;;;5060639;28;20044;-71
2022/11/18 13:33:43;;;;;;;12.45;4.63;;;21.10;99.90;;;;;;5087752;28;20079;-71
2022/11/18 13:36:23;;;;;;;7.57;3.53;;;21.00;99.90;;;;;;5044721;28;20067;-72
2022/11/18 13:39:05;;;;;;;16.08;4.25;;;20.80;99.90;;;;;;5053840;28;20048;-71
2022/11/18 13:41:34;;;;;;;12.02;3.33;;;20.70;99.90;;;;;;5049956;28;20065;-72
2022/11/18 13:44:20;;;;;;;15.43;3.50;;;20.70;99.90;;;;;;5057860;28;20071;-71
2022/11/18 13:47:15;;;;;;;6.10;3.58;;;20.60;99.90;;;;;;5036421;28;20143;-71
2022/11/18 13:49:46;;;;;;;7.88;3.33;;;20.60;99.90;;;;;;5042840;28;20510;-71